CPX250 Details

Departure: Miami International Airport (KMIA)
Arrival: Ted Stevens Anchorage International Airport (PANC)
Route: WINCO2 WINCO CHRRI SMELZ Q116 JAWJA MGM IGB UJM OSW HLC MBW DBS PDT J20 SEA J523 TOU J501 YAZ Q801 YZP TR19 FRIED J804R EEDEN J804R MDO WITTI4


Current Weather Information
KMIA 260053Z 14008KT 100V160 10SM FEW040 FEW140 BKN250 26/20 A2998 RMK AO2 SLP153 T02560200
PANC 260053Z 20010KT 10SM FEW050 FEW100 BKN190 09/M06 A3007 RMK AO2 SLP183 ACSL DSNT S T00941061